Lincoln, WA (99147)

2:57 AM PST on December 10, 2016 (GMT -0800)
Seven Bays | | Change Station

Elev 1332 ft 47.85 °N, 118.34 °W | Updated 13 seconds ago

Overcast
Overcast
23.4 °F
Feels Like 23 °F
N
0.9
Wind Variable Wind from ENE
Gusts 3.0 mph

Today
High -- | Low -- °F
--% Chance of Precip.
Yesterday
High -- | Low -- °F
Precip. -- in
Pressure 29.80 in
Visibility 2.0 miles
Clouds Overcast 900 ft
Windchill 23 °F
Dew Point 21 °F
Humidity 89%
Rainfall 0.00 in
Snow Depth Not available.
7:32 AM 4:01 PM
Waxing Gibbous, 82% visible
SPECI KSKA 101023Z AUTO 02007KT 2SM -SN BR OVC009 M08/M08 A2980 RMK AO2 VIS 1 1/2V2
Pressure 29.80 in
Visibility 2.0 miles
Clouds Overcast 900 ft
Windchill 23 °F
Dew Point 21 °F
Humidity 89%
Rainfall 0.00 in
Snow Depth Not available.
7:32 AM 4:01 PM
Waxing Gibbous, 82% visible
SPECI KSKA 101023Z AUTO 02007KT 2SM -SN BR OVC009 M08/M08 A2980 RMK AO2 VIS 1 1/2V2

10-Day Weather Forecast

Almanac

Astronomy

Dec. 10, 2016 Rise Set
Actual Time
Civil Twilight
Nautical Twilight
Astronomical Twilight
Moon
Length of Visible Light
Length of Day
Tomorrow will be .
, % of the Moon is Illuminated

Today's Extremes

State Highs State Lows

Community

WunderPhotos

Upload Photos

1,956,536 photos uploaded!

WunderBlog® & News

Nearby

Air Quality

  Air Quality AQ Index Pollutant
Not available.

Snow Depth

Station Depth Elevation

Earthquake Activity

City Distance Mag. Time & Date
Minimum magnitude displayed is 2.5.

Coastal Water Temperatures

Place Temperature

Stations

Nearby Weather Stations

Station Location Temp. Windchill Dew Point Humidity Wind Precip. Elev Updated Type
                   

Watches & Warnings

There are currently no watches in effect.